VEAT/IXA METAR and TAF weather

Enter ICAO airport designator
Station Type Date Time Source
VEAT METAR 2020/07/14 13:00 UTC NOAA

VEAT 141300Z 18003KT 6000 SCT020 BKN100 29/27 Q1003 BECMG 5000 BR


Station Type Date Time Source
VEAT Decoded METAR 2020/07/14 13:00 UTC NOAA

Agartala, India (VEAT) 23-53N 091-15E 16M
Jul 14, 2020 - 09:00 AM EDT / 2020.07.14 1300 UTC
Wind: from the S (180 degrees) at 3 MPH (3 KT):0
Visibility: 3 mile(s):0
Sky conditions: mostly cloudy
Temperature: 84 F (29 C)
Dew Point: 80 F (27 C)
Relative Humidity: 88%
Pressure (altimeter): 29.62 in. Hg (1003 hPa)
ob: VEAT 141300Z 18003KT 6000 SCT020 BKN100 29/27 Q1003 BECMG 5000 BR
cycle: 13

Station Type Date Time Source
VEAT TAF 2013/07/19 12:00 UTC NOAA

TAF VEAT 190900Z 1912/1921 16008KT 5000 HZ SCT018 FEW030CB BKN100
TEMPO 1912/1921 3000 -TSRA SCT015 FEW025CB OVC090

Example: see airport list